sensor_id;sensor_type;location;lat;lon;timestamp;pressure;altitude;pressure_sealevel;temperature;humidity
72110;BME280;59983;52.010;5.420;2023-04-28T00:00:12;101429.31;;;11.30;51.84
72110;BME280;59983;52.010;5.420;2023-04-28T00:02:38;101428.69;;;11.33;51.84
72110;BME280;59983;52.010;5.420;2023-04-28T00:05:06;101423.09;;;11.30;51.70
72110;BME280;59983;52.010;5.420;2023-04-28T00:07:32;101408.41;;;11.31;52.31
72110;BME280;59983;52.010;5.420;2023-04-28T00:09:59;101406.94;;;11.33;52.18
72110;BME280;59983;52.010;5.420;2023-04-28T00:12:25;101405.38;;;11.32;52.50
72110;BME280;59983;52.010;5.420;2023-04-28T00:14:52;101405.13;;;11.25;51.93
72110;BME280;59983;52.010;5.420;2023-04-28T00:17:18;101394.94;;;11.22;52.11
72110;BME280;59983;52.010;5.420;2023-04-28T00:19:45;101386.78;;;11.22;52.70
72110;BME280;59983;52.010;5.420;2023-04-28T00:22:12;101371.28;;;11.23;52.08
72110;BME280;59983;52.010;5.420;2023-04-28T00:24:38;101379.09;;;11.24;52.41
72110;BME280;59983;52.010;5.420;2023-04-28T00:27:07;101375.44;;;11.20;52.40
72110;BME280;59983;52.010;5.420;2023-04-28T00:29:33;101383.38;;;11.13;52.79
72110;BME280;59983;52.010;5.420;2023-04-28T00:32:00;101373.31;;;11.14;52.79
72110;BME280;59983;52.010;5.420;2023-04-28T00:34:26;101365.25;;;11.17;52.68
72110;BME280;59983;52.010;5.420;2023-04-28T00:36:54;101353.59;;;11.17;53.26
72110;BME280;59983;52.010;5.420;2023-04-28T00:39:22;101351.00;;;11.20;53.67
72110;BME280;59983;52.010;5.420;2023-04-28T00:41:49;101340.81;;;11.17;55.78
72110;BME280;59983;52.010;5.420;2023-04-28T00:44:15;101351.47;;;11.22;58.29
72110;BME280;59983;52.010;5.420;2023-04-28T00:46:42;101357.31;;;11.12;58.15
72110;BME280;59983;52.010;5.420;2023-04-28T00:49:09;101354.78;;;10.95;61.63
72110;BME280;59983;52.010;5.420;2023-04-28T00:51:36;101359.97;;;10.88;61.48
72110;BME280;59983;52.010;5.420;2023-04-28T00:54:02;101360.78;;;10.88;64.04
72110;BME280;59983;52.010;5.420;2023-04-28T00:56:31;101364.03;;;10.82;65.27
72110;BME280;59983;52.010;5.420;2023-04-28T00:58:57;101346.69;;;10.74;66.73
72110;BME280;59983;52.010;5.420;2023-04-28T01:01:24;101345.00;;;10.69;66.52
72110;BME280;59983;52.010;5.420;2023-04-28T01:03:51;101337.63;;;10.70;66.19
72110;BME280;59983;52.010;5.420;2023-04-28T01:06:18;101336.03;;;10.69;66.28
72110;BME280;59983;52.010;5.420;2023-04-28T01:08:47;101325.84;;;10.66;67.04
72110;BME280;59983;52.010;5.420;2023-04-28T01:11:15;101329.34;;;10.66;68.17
72110;BME280;59983;52.010;5.420;2023-04-28T01:13:42;101328.78;;;10.61;67.82
72110;BME280;59983;52.010;5.420;2023-04-28T01:16:08;101324.16;;;10.61;68.86
72110;BME280;59983;52.010;5.420;2023-04-28T01:18:35;101328.53;;;10.54;68.53
72110;BME280;59983;52.010;5.420;2023-04-28T01:21:02;101325.47;;;10.55;68.44
72110;BME280;59983;52.010;5.420;2023-04-28T01:23:29;101323.28;;;10.48;67.95
72110;BME280;59983;52.010;5.420;2023-04-28T01:25:56;101326.69;;;10.45;68.14
72110;BME280;59983;52.010;5.420;2023-04-28T01:28:23;101325.13;;;10.57;68.65
72110;BME280;59983;52.010;5.420;2023-04-28T01:30:49;101328.31;;;10.59;68.13
72110;BME280;59983;52.010;5.420;2023-04-28T01:33:16;101317.78;;;10.57;67.70
72110;BME280;59983;52.010;5.420;2023-04-28T01:35:42;101320.38;;;10.54;69.47
72110;BME280;59983;52.010;5.420;2023-04-28T01:38:09;101314.69;;;10.46;69.00
72110;BME280;59983;52.010;5.420;2023-04-28T01:40:36;101316.81;;;10.41;69.21
72110;BME280;59983;52.010;5.420;2023-04-28T01:43:02;101307.44;;;10.38;67.23
72110;BME280;59983;52.010;5.420;2023-04-28T01:45:29;101294.81;;;10.42;68.18
72110;BME280;59983;52.010;5.420;2023-04-28T01:47:55;101289.16;;;10.47;69.40
72110;BME280;59983;52.010;5.420;2023-04-28T01:50:22;101283.72;;;10.47;68.32
72110;BME280;59983;52.010;5.420;2023-04-28T01:52:48;101290.75;;;10.48;68.52
72110;BME280;59983;52.010;5.420;2023-04-28T01:55:15;101282.16;;;10.46;68.49
72110;BME280;59983;52.010;5.420;2023-04-28T01:57:41;101279.91;;;10.48;68.72
72110;BME280;59983;52.010;5.420;2023-04-28T02:00:08;101270.06;;;10.44;68.50
72110;BME280;59983;52.010;5.420;2023-04-28T02:02:35;101274.47;;;10.48;67.00
72110;BME280;59983;52.010;5.420;2023-04-28T02:05:02;101269.72;;;10.45;65.20
72110;BME280;59983;52.010;5.420;2023-04-28T02:07:29;101271.63;;;10.45;64.88
72110;BME280;59983;52.010;5.420;2023-04-28T02:09:55;101275.59;;;10.47;66.04
72110;BME280;59983;52.010;5.420;2023-04-28T02:12:22;101275.34;;;10.40;66.61
72110;BME280;59983;52.010;5.420;2023-04-28T02:14:49;101275.16;;;10.45;64.89
72110;BME280;59983;52.010;5.420;2023-04-28T02:17:16;101267.81;;;10.46;66.00
72110;BME280;59983;52.010;5.420;2023-04-28T02:19:42;101256.16;;;10.45;64.76
72110;BME280;59983;52.010;5.420;2023-04-28T02:22:09;101246.22;;;10.49;66.82
72110;BME280;59983;52.010;5.420;2023-04-28T02:24:35;101253.91;;;10.47;65.91
72110;BME280;59983;52.010;5.420;2023-04-28T02:27:03;101251.97;;;10.48;64.98
72110;BME280;59983;52.010;5.420;2023-04-28T02:29:30;101248.13;;;10.49;65.31
72110;BME280;59983;52.010;5.420;2023-04-28T02:31:57;101251.44;;;10.55;66.88
72110;BME280;59983;52.010;5.420;2023-04-28T02:34:24;101244.56;;;10.57;65.07
72110;BME280;59983;52.010;5.420;2023-04-28T02:36:50;101237.28;;;10.49;65.00
72110;BME280;59983;52.010;5.420;2023-04-28T02:39:16;101233.13;;;10.52;65.25
72110;BME280;59983;52.010;5.420;2023-04-28T02:41:43;101218.75;;;10.51;64.95
72110;BME280;59983;52.010;5.420;2023-04-28T02:44:10;101214.00;;;10.48;64.51
72110;BME280;59983;52.010;5.420;2023-04-28T02:46:36;101220.03;;;10.54;65.31
72110;BME280;59983;52.010;5.420;2023-04-28T02:49:03;101210.41;;;10.56;64.62
72110;BME280;59983;52.010;5.420;2023-04-28T02:51:29;101207.13;;;10.50;65.03
72110;BME280;59983;52.010;5.420;2023-04-28T02:53:56;101204.41;;;10.50;65.29
72110;BME280;59983;52.010;5.420;2023-04-28T02:56:23;101207.47;;;10.49;65.63
72110;BME280;59983;52.010;5.420;2023-04-28T02:58:49;101203.38;;;10.43;66.79
72110;BME280;59983;52.010;5.420;2023-04-28T03:01:16;101193.00;;;10.45;66.57
72110;BME280;59983;52.010;5.420;2023-04-28T03:03:42;101187.91;;;10.43;65.91
72110;BME280;59983;52.010;5.420;2023-04-28T03:06:09;101190.81;;;10.38;65.09
72110;BME280;59983;52.010;5.420;2023-04-28T03:08:36;101188.69;;;10.44;66.25
72110;BME280;59983;52.010;5.420;2023-04-28T03:11:02;101180.31;;;10.37;65.14
72110;BME280;59983;52.010;5.420;2023-04-28T03:13:29;101170.25;;;10.37;65.34
72110;BME280;59983;52.010;5.420;2023-04-28T03:15:55;101173.09;;;10.41;65.64
72110;BME280;59983;52.010;5.420;2023-04-28T03:18:22;101173.97;;;10.33;65.56
72110;BME280;59983;52.010;5.420;2023-04-28T03:20:49;101179.19;;;10.38;65.78
72110;BME280;59983;52.010;5.420;2023-04-28T03:23:15;101175.69;;;10.37;64.27
72110;BME280;59983;52.010;5.420;2023-04-28T03:25:42;101178.06;;;10.39;65.50
72110;BME280;59983;52.010;5.420;2023-04-28T03:28:08;101175.78;;;10.41;64.90
72110;BME280;59983;52.010;5.420;2023-04-28T03:30:36;101178.19;;;10.42;65.59
72110;BME280;59983;52.010;5.420;2023-04-28T03:33:02;101177.72;;;10.40;64.91
72110;BME280;59983;52.010;5.420;2023-04-28T03:35:29;101169.50;;;10.49;65.05
72110;BME280;59983;52.010;5.420;2023-04-28T03:37:55;101176.19;;;10.52;64.80
72110;BME280;59983;52.010;5.420;2023-04-28T03:40:21;101164.84;;;10.49;64.64
72110;BME280;59983;52.010;5.420;2023-04-28T03:42:48;101169.03;;;10.47;65.03
72110;BME280;59983;52.010;5.420;2023-04-28T03:45:15;101158.53;;;10.45;64.74
72110;BME280;59983;52.010;5.420;2023-04-28T03:47:41;101155.59;;;10.50;63.56
72110;BME280;59983;52.010;5.420;2023-04-28T03:50:08;101152.19;;;10.41;65.24
72110;BME280;59983;52.010;5.420;2023-04-28T03:52:35;101161.34;;;10.49;64.70
72110;BME280;59983;52.010;5.420;2023-04-28T03:55:01;101158.63;;;10.49;64.55
72110;BME280;59983;52.010;5.420;2023-04-28T03:57:28;101150.41;;;10.45;64.98
72110;BME280;59983;52.010;5.420;2023-04-28T03:59:54;101144.75;;;10.50;64.25
72110;BME280;59983;52.010;5.420;2023-04-28T04:02:21;101143.50;;;10.48;64.71
72110;BME280;59983;52.010;5.420;2023-04-28T04:04:48;101137.28;;;10.47;64.49
72110;BME280;59983;52.010;5.420;2023-04-28T04:07:15;101138.88;;;10.48;64.91
72110;BME280;59983;52.010;5.420;2023-04-28T04:09:41;101133.44;;;10.48;66.34
72110;BME280;59983;52.010;5.420;2023-04-28T04:12:08;101127.69;;;10.50;65.72
72110;BME280;59983;52.010;5.420;2023-04-28T04:14:34;101124.50;;;10.48;64.98
72110;BME280;59983;52.010;5.420;2023-04-28T04:17:01;101123.38;;;10.49;65.44
72110;BME280;59983;52.010;5.420;2023-04-28T04:19:27;101122.50;;;10.45;65.79
72110;BME280;59983;52.010;5.420;2023-04-28T04:21:54;101114.91;;;10.38;66.01
72110;BME280;59983;52.010;5.420;2023-04-28T04:24:20;101110.84;;;10.44;66.66
72110;BME280;59983;52.010;5.420;2023-04-28T04:26:47;101107.91;;;10.49;66.99
72110;BME280;59983;52.010;5.420;2023-04-28T04:29:13;101116.97;;;10.54;66.09
72110;BME280;59983;52.010;5.420;2023-04-28T04:31:40;101114.91;;;10.50;66.50
72110;BME280;59983;52.010;5.420;2023-04-28T04:34:07;101110.75;;;10.53;66.22
72110;BME280;59983;52.010;5.420;2023-04-28T04:36:33;101111.19;;;10.55;66.88
72110;BME280;59983;52.010;5.420;2023-04-28T04:38:59;101108.47;;;10.55;66.81
72110;BME280;59983;52.010;5.420;2023-04-28T04:41:26;101106.91;;;10.54;66.90
72110;BME280;59983;52.010;5.420;2023-04-28T04:43:53;101102.84;;;10.60;67.12
72110;BME280;59983;52.010;5.420;2023-04-28T04:46:19;101102.50;;;10.62;67.25
72110;BME280;59983;52.010;5.420;2023-04-28T04:48:46;101101.81;;;10.65;67.30
72110;BME280;59983;52.010;5.420;2023-04-28T04:51:12;101096.97;;;10.70;67.00
72110;BME280;59983;52.010;5.420;2023-04-28T04:53:39;101099.00;;;10.73;67.08
72110;BME280;59983;52.010;5.420;2023-04-28T04:56:05;101101.59;;;10.70;67.52
72110;BME280;59983;52.010;5.420;2023-04-28T04:58:32;101083.84;;;10.72;67.92
72110;BME280;59983;52.010;5.420;2023-04-28T05:00:58;101085.78;;;10.72;67.99
72110;BME280;59983;52.010;5.420;2023-04-28T05:03:25;101082.72;;;10.73;68.05
72110;BME280;59983;52.010;5.420;2023-04-28T05:05:52;101082.28;;;10.71;68.53
72110;BME280;59983;52.010;5.420;2023-04-28T05:08:18;101080.00;;;10.73;68.36
72110;BME280;59983;52.010;5.420;2023-04-28T05:10:45;101078.53;;;10.76;69.08
72110;BME280;59983;52.010;5.420;2023-04-28T05:13:11;101081.47;;;10.71;69.09
72110;BME280;59983;52.010;5.420;2023-04-28T05:15:38;101077.63;;;10.72;69.72
72110;BME280;59983;52.010;5.420;2023-04-28T05:18:04;101075.38;;;10.74;69.06
72110;BME280;59983;52.010;5.420;2023-04-28T05:20:36;101068.16;;;10.78;69.02
72110;BME280;59983;52.010;5.420;2023-04-28T05:23:03;101073.56;;;10.78;68.89
72110;BME280;59983;52.010;5.420;2023-04-28T05:25:29;101073.31;;;10.83;69.44
72110;BME280;59983;52.010;5.420;2023-04-28T05:27:56;101071.41;;;10.84;69.75
72110;BME280;59983;52.010;5.420;2023-04-28T05:30:22;101070.03;;;10.77;69.77
72110;BME280;59983;52.010;5.420;2023-04-28T05:32:49;101080.78;;;10.74;70.01
72110;BME280;59983;52.010;5.420;2023-04-28T05:35:15;101080.88;;;10.77;70.35
72110;BME280;59983;52.010;5.420;2023-04-28T05:37:42;101075.94;;;10.80;70.69
72110;BME280;59983;52.010;5.420;2023-04-28T05:40:10;101081.13;;;10.72;71.33
72110;BME280;59983;52.010;5.420;2023-04-28T05:42:37;101083.94;;;10.76;72.25
72110;BME280;59983;52.010;5.420;2023-04-28T05:45:04;101067.31;;;10.77;73.34
72110;BME280;59983;52.010;5.420;2023-04-28T05:47:31;101071.88;;;10.73;76.14
72110;BME280;59983;52.010;5.420;2023-04-28T05:49:58;101069.38;;;10.68;76.88
72110;BME280;59983;52.010;5.420;2023-04-28T05:52:24;101075.25;;;10.70;78.17
72110;BME280;59983;52.010;5.420;2023-04-28T05:54:51;101076.41;;;10.69;79.05
72110;BME280;59983;52.010;5.420;2023-04-28T05:57:17;101070.50;;;10.67;79.34
72110;BME280;59983;52.010;5.420;2023-04-28T05:59:44;101066.56;;;10.65;80.67
72110;BME280;59983;52.010;5.420;2023-04-28T06:02:10;101066.44;;;10.61;81.33
72110;BME280;59983;52.010;5.420;2023-04-28T06:04:37;101074.47;;;10.58;82.41
72110;BME280;59983;52.010;5.420;2023-04-28T06:07:04;101086.00;;;10.55;82.67
72110;BME280;59983;52.010;5.420;2023-04-28T06:09:31;101086.88;;;10.59;82.91
72110;BME280;59983;52.010;5.420;2023-04-28T06:11:57;101079.09;;;10.57;83.74
72110;BME280;59983;52.010;5.420;2023-04-28T06:14:24;101074.69;;;10.53;84.55
72110;BME280;59983;52.010;5.420;2023-04-28T06:16:51;101071.75;;;10.58;84.47
72110;BME280;59983;52.010;5.420;2023-04-28T06:19:17;101063.84;;;10.53;85.84
72110;BME280;59983;52.010;5.420;2023-04-28T06:21:46;101062.72;;;10.54;86.71
72110;BME280;59983;52.010;5.420;2023-04-28T06:24:15;101058.75;;;10.63;87.23
72110;BME280;59983;52.010;5.420;2023-04-28T06:26:42;101067.44;;;10.69;87.34
72110;BME280;59983;52.010;5.420;2023-04-28T06:29:09;101055.00;;;10.68;88.24
72110;BME280;59983;52.010;5.420;2023-04-28T06:31:36;101065.19;;;10.71;89.67
72110;BME280;59983;52.010;5.420;2023-04-28T06:34:02;101064.84;;;10.72;90.18
72110;BME280;59983;52.010;5.420;2023-04-28T06:36:29;101058.28;;;10.73;89.94
72110;BME280;59983;52.010;5.420;2023-04-28T06:38:56;101063.50;;;10.78;89.89
72110;BME280;59983;52.010;5.420;2023-04-28T06:41:22;101059.53;;;10.88;90.26
72110;BME280;59983;52.010;5.420;2023-04-28T06:43:49;101074.91;;;10.96;90.30
72110;BME280;59983;52.010;5.420;2023-04-28T06:46:16;101064.25;;;11.03;90.75
72110;BME280;59983;52.010;5.420;2023-04-28T06:48:42;101069.78;;;11.07;90.59
72110;BME280;59983;52.010;5.420;2023-04-28T06:51:09;101072.25;;;11.12;90.57
72110;BME280;59983;52.010;5.420;2023-04-28T06:53:35;101063.09;;;11.17;90.07
72110;BME280;59983;52.010;5.420;2023-04-28T06:56:02;101060.47;;;11.20;90.34
72110;BME280;59983;52.010;5.420;2023-04-28T06:58:29;101044.66;;;11.22;90.49
72110;BME280;59983;52.010;5.420;2023-04-28T07:00:56;101038.53;;;11.25;90.61
72110;BME280;59983;52.010;5.420;2023-04-28T07:03:23;101047.22;;;11.31;90.92
72110;BME280;59983;52.010;5.420;2023-04-28T07:05:49;101039.16;;;11.34;91.36
72110;BME280;59983;52.010;5.420;2023-04-28T07:08:17;101036.53;;;11.38;91.85
72110;BME280;59983;52.010;5.420;2023-04-28T07:10:43;101033.59;;;11.43;91.79
72110;BME280;59983;52.010;5.420;2023-04-28T07:13:10;101030.53;;;11.45;91.61
72110;BME280;59983;52.010;5.420;2023-04-28T07:15:37;101029.81;;;11.48;91.20
72110;BME280;59983;52.010;5.420;2023-04-28T07:18:03;101034.59;;;11.51;91.39
72110;BME280;59983;52.010;5.420;2023-04-28T07:20:30;101036.44;;;11.62;91.62
72110;BME280;59983;52.010;5.420;2023-04-28T07:22:57;101030.50;;;11.73;90.82
72110;BME280;59983;52.010;5.420;2023-04-28T07:25:23;101023.69;;;11.79;91.41
72110;BME280;59983;52.010;5.420;2023-04-28T07:27:50;101026.75;;;11.77;91.23
72110;BME280;59983;52.010;5.420;2023-04-28T07:30:16;101029.78;;;11.88;91.28
72110;BME280;59983;52.010;5.420;2023-04-28T07:32:53;101030.25;;;12.06;91.55
72110;BME280;59983;52.010;5.420;2023-04-28T07:35:20;101033.31;;;12.20;91.58
72110;BME280;59983;52.010;5.420;2023-04-28T07:37:46;101028.03;;;12.27;90.83
72110;BME280;59983;52.010;5.420;2023-04-28T07:40:13;101024.47;;;12.39;91.55
72110;BME280;59983;52.010;5.420;2023-04-28T07:42:40;101032.44;;;12.47;90.45
72110;BME280;59983;52.010;5.420;2023-04-28T07:45:07;101024.88;;;12.57;91.01
72110;BME280;59983;52.010;5.420;2023-04-28T07:47:34;101026.03;;;12.56;90.34
72110;BME280;59983;52.010;5.420;2023-04-28T07:50:01;101030.03;;;12.62;91.81
72110;BME280;59983;52.010;5.420;2023-04-28T07:52:32;101023.19;;;12.68;91.95
72110;BME280;59983;52.010;5.420;2023-04-28T07:54:59;101035.25;;;12.86;92.06
72110;BME280;59983;52.010;5.420;2023-04-28T07:57:25;101027.44;;;12.85;91.19
72110;BME280;59983;52.010;5.420;2023-04-28T07:59:52;101030.69;;;12.90;92.08
72110;BME280;59983;52.010;5.420;2023-04-28T08:02:19;101028.41;;;12.92;92.33
72110;BME280;59983;52.010;5.420;2023-04-28T08:04:46;101034.78;;;13.00;91.63
72110;BME280;59983;52.010;5.420;2023-04-28T08:07:13;101031.34;;;13.03;91.00
72110;BME280;59983;52.010;5.420;2023-04-28T08:09:39;101028.34;;;13.08;91.46
72110;BME280;59983;52.010;5.420;2023-04-28T08:12:09;101031.06;;;13.08;91.45
72110;BME280;59983;52.010;5.420;2023-04-28T08:14:35;101029.75;;;13.02;91.33
72110;BME280;59983;52.010;5.420;2023-04-28T08:17:02;101039.94;;;13.05;92.08
72110;BME280;59983;52.010;5.420;2023-04-28T08:19:29;101033.69;;;13.04;91.62
72110;BME280;59983;52.010;5.420;2023-04-28T08:21:56;101037.22;;;13.05;92.34
72110;BME280;59983;52.010;5.420;2023-04-28T08:24:22;101036.94;;;13.10;92.76
72110;BME280;59983;52.010;5.420;2023-04-28T08:26:49;101036.59;;;13.12;93.20
72110;BME280;59983;52.010;5.420;2023-04-28T08:29:15;101042.44;;;13.14;93.63
72110;BME280;59983;52.010;5.420;2023-04-28T08:31:42;101043.34;;;13.18;94.74
72110;BME280;59983;52.010;5.420;2023-04-28T08:34:09;101040.56;;;13.33;95.20
72110;BME280;59983;52.010;5.420;2023-04-28T08:36:35;101037.13;;;13.37;95.06
72110;BME280;59983;52.010;5.420;2023-04-28T08:39:02;101032.25;;;13.46;96.01
72110;BME280;59983;52.010;5.420;2023-04-28T08:41:31;101033.41;;;13.45;96.20
72110;BME280;59983;52.010;5.420;2023-04-28T08:43:58;101027.28;;;13.51;96.77
72110;BME280;59983;52.010;5.420;2023-04-28T08:46:26;101027.88;;;13.60;96.88
72110;BME280;59983;52.010;5.420;2023-04-28T08:48:59;101028.28;;;13.63;97.52
72110;BME280;59983;52.010;5.420;2023-04-28T08:51:33;101022.97;;;13.70;97.36
72110;BME280;59983;52.010;5.420;2023-04-28T08:54:03;101026.84;;;13.69;97.48
72110;BME280;59983;52.010;5.420;2023-04-28T08:56:50;101015.81;;;13.62;97.80
72110;BME280;59983;52.010;5.420;2023-04-28T08:59:17;101015.72;;;13.58;99.04
72110;BME280;59983;52.010;5.420;2023-04-28T09:01:47;101025.06;;;13.57;98.85
72110;BME280;59983;52.010;5.420;2023-04-28T09:04:16;101023.84;;;13.54;98.80
72110;BME280;59983;52.010;5.420;2023-04-28T09:06:43;101023.22;;;13.61;99.33
72110;BME280;59983;52.010;5.420;2023-04-28T09:09:21;101021.28;;;13.62;98.81
72110;BME280;59983;52.010;5.420;2023-04-28T09:11:55;101022.34;;;13.57;98.94
72110;BME280;59983;52.010;5.420;2023-04-28T09:14:24;101031.31;;;13.57;99.32
72110;BME280;59983;52.010;5.420;2023-04-28T09:16:51;101023.13;;;13.57;99.79
72110;BME280;59983;52.010;5.420;2023-04-28T09:19:18;101019.91;;;13.52;99.87
72110;BME280;59983;52.010;5.420;2023-04-28T09:21:55;101016.31;;;13.48;100.00
72110;BME280;59983;52.010;5.420;2023-04-28T09:24:35;101016.47;;;13.55;100.00
72110;BME280;59983;52.010;5.420;2023-04-28T09:27:06;101018.81;;;13.56;100.00
72110;BME280;59983;52.010;5.420;2023-04-28T09:29:51;101022.06;;;13.62;100.00
72110;BME280;59983;52.010;5.420;2023-04-28T09:32:19;101015.38;;;13.59;100.00
72110;BME280;59983;52.010;5.420;2023-04-28T09:34:50;101013.50;;;13.64;100.00
72110;BME280;59983;52.010;5.420;2023-04-28T09:37:18;101021.69;;;13.64;100.00
72110;BME280;59983;52.010;5.420;2023-04-28T09:39:47;101014.59;;;13.59;100.00
72110;BME280;59983;52.010;5.420;2023-04-28T09:45:07;101021.69;;;13.64;100.00
72110;BME280;59983;52.010;5.420;2023-04-28T09:47:36;101015.50;;;13.67;100.00
72110;BME280;59983;52.010;5.420;2023-04-28T09:50:06;101007.03;;;13.72;100.00
72110;BME280;59983;52.010;5.420;2023-04-28T09:52:34;101005.38;;;13.67;100.00
72110;BME280;59983;52.010;5.420;2023-04-28T09:55:04;101003.53;;;13.71;100.00
72110;BME280;59983;52.010;5.420;2023-04-28T09:57:32;101008.19;;;13.71;100.00
72110;BME280;59983;52.010;5.420;2023-04-28T10:00:00;101002.81;;;13.74;100.00
72110;BME280;59983;52.010;5.420;2023-04-28T10:02:28;101013.72;;;13.74;100.00
72110;BME280;59983;52.010;5.420;2023-04-28T10:04:57;101018.22;;;13.67;100.00
72110;BME280;59983;52.010;5.420;2023-04-28T10:07:25;101011.94;;;13.63;100.00
72110;BME280;59983;52.010;5.420;2023-04-28T10:09:52;100998.72;;;13.65;100.00
72110;BME280;59983;52.010;5.420;2023-04-28T10:12:20;101010.13;;;13.70;100.00
72110;BME280;59983;52.010;5.420;2023-04-28T10:14:48;101010.41;;;13.65;100.00
72110;BME280;59983;52.010;5.420;2023-04-28T10:17:21;101009.22;;;13.63;100.00
72110;BME280;59983;52.010;5.420;2023-04-28T10:19:49;101008.78;;;13.60;100.00
72110;BME280;59983;52.010;5.420;2023-04-28T10:25:32;101005.69;;;13.62;100.00
72110;BME280;59983;52.010;5.420;2023-04-28T10:28:03;101003.81;;;13.66;100.00
72110;BME280;59983;52.010;5.420;2023-04-28T10:30:31;101013.19;;;13.69;100.00
72110;BME280;59983;52.010;5.420;2023-04-28T10:35:44;101013.44;;;13.60;100.00
72110;BME280;59983;52.010;5.420;2023-04-28T10:40:43;101017.66;;;13.57;100.00
72110;BME280;59983;52.010;5.420;2023-04-28T10:43:12;101019.09;;;13.51;100.00
72110;BME280;59983;52.010;5.420;2023-04-28T10:48:15;101016.03;;;13.33;100.00
72110;BME280;59983;52.010;5.420;2023-04-28T10:58:39;101020.13;;;13.24;100.00
72110;BME280;59983;52.010;5.420;2023-04-28T11:03:49;101026.44;;;13.28;100.00
72110;BME280;59983;52.010;5.420;2023-04-28T11:08:50;101023.13;;;13.19;100.00
72110;BME280;59983;52.010;5.420;2023-04-28T11:11:19;101015.31;;;13.17;100.00
72110;BME280;59983;52.010;5.420;2023-04-28T11:13:47;101015.41;;;13.21;100.00
72110;BME280;59983;52.010;5.420;2023-04-28T11:16:15;101019.59;;;13.18;100.00
72110;BME280;59983;52.010;5.420;2023-04-28T11:18:53;101028.66;;;13.22;100.00
72110;BME280;59983;52.010;5.420;2023-04-28T11:21:22;101024.88;;;13.27;100.00
72110;BME280;59983;52.010;5.420;2023-04-28T11:23:49;101006.38;;;13.36;100.00
72110;BME280;59983;52.010;5.420;2023-04-28T11:26:17;101012.59;;;13.56;100.00
72110;BME280;59983;52.010;5.420;2023-04-28T11:28:56;101001.41;;;13.61;100.00
72110;BME280;59983;52.010;5.420;2023-04-28T11:31:24;101005.47;;;13.71;100.00
72110;BME280;59983;52.010;5.420;2023-04-28T11:36:29;100996.44;;;13.67;100.00
72110;BME280;59983;52.010;5.420;2023-04-28T11:38:58;100998.78;;;13.68;100.00
72110;BME280;59983;52.010;5.420;2023-04-28T11:41:25;101002.25;;;13.65;100.00
72110;BME280;59983;52.010;5.420;2023-04-28T11:43:52;100999.00;;;13.59;100.00
72110;BME280;59983;52.010;5.420;2023-04-28T11:46:20;101001.47;;;13.65;100.00
72110;BME280;59983;52.010;5.420;2023-04-28T11:48:47;101013.16;;;13.65;100.00
72110;BME280;59983;52.010;5.420;2023-04-28T11:51:31;101014.72;;;13.66;100.00
72110;BME280;59983;52.010;5.420;2023-04-28T11:53:59;101002.81;;;13.74;100.00
72110;BME280;59983;52.010;5.420;2023-04-28T11:56:27;101007.19;;;13.79;100.00
72110;BME280;59983;52.010;5.420;2023-04-28T11:59:27;101008.38;;;13.81;100.00
72110;BME280;59983;52.010;5.420;2023-04-28T12:02:01;101002.69;;;13.90;100.00
72110;BME280;59983;52.010;5.420;2023-04-28T12:04:36;101017.16;;;13.94;100.00
72110;BME280;59983;52.010;5.420;2023-04-28T12:07:08;101004.81;;;14.00;100.00
72110;BME280;59983;52.010;5.420;2023-04-28T12:09:42;101003.28;;;14.03;100.00
72110;BME280;59983;52.010;5.420;2023-04-28T12:12:12;101004.84;;;14.04;100.00
72110;BME280;59983;52.010;5.420;2023-04-28T12:14:58;101009.53;;;14.03;100.00
72110;BME280;59983;52.010;5.420;2023-04-28T12:17:26;101008.97;;;13.94;100.00
72110;BME280;59983;52.010;5.420;2023-04-28T12:19:57;101023.34;;;13.91;100.00
72110;BME280;59983;52.010;5.420;2023-04-28T12:22:24;101006.94;;;13.87;100.00
72110;BME280;59983;52.010;5.420;2023-04-28T12:25:11;101012.44;;;13.91;100.00
72110;BME280;59983;52.010;5.420;2023-04-28T12:27:39;101010.50;;;13.92;100.00
72110;BME280;59983;52.010;5.420;2023-04-28T12:32:46;101021.94;;;13.78;100.00
72110;BME280;59983;52.010;5.420;2023-04-28T12:35:13;101036.25;;;13.71;100.00
72110;BME280;59983;52.010;5.420;2023-04-28T12:37:41;101039.34;;;13.70;100.00
72110;BME280;59983;52.010;5.420;2023-04-28T12:40:08;101040.59;;;13.76;100.00
72110;BME280;59983;52.010;5.420;2023-04-28T12:42:35;101032.84;;;13.78;100.00
72110;BME280;59983;52.010;5.420;2023-04-28T12:45:02;101032.84;;;13.78;100.00
72110;BME280;59983;52.010;5.420;2023-04-28T12:47:30;101029.84;;;13.83;100.00
72110;BME280;59983;52.010;5.420;2023-04-28T12:49:57;101022.25;;;13.96;100.00
72110;BME280;59983;52.010;5.420;2023-04-28T12:52:24;101029.50;;;14.07;100.00
72110;BME280;59983;52.010;5.420;2023-04-28T12:54:50;101032.22;;;14.07;100.00
72110;BME280;59983;52.010;5.420;2023-04-28T12:57:18;101028.94;;;13.98;100.00
72110;BME280;59983;52.010;5.420;2023-04-28T12:59:45;101036.25;;;13.94;100.00
72110;BME280;59983;52.010;5.420;2023-04-28T13:02:14;101039.72;;;13.91;100.00
72110;BME280;59983;52.010;5.420;2023-04-28T13:04:41;101036.84;;;13.84;100.00
72110;BME280;59983;52.010;5.420;2023-04-28T13:07:14;101045.28;;;13.75;100.00
72110;BME280;59983;52.010;5.420;2023-04-28T13:09:41;101036.25;;;13.71;100.00
72110;BME280;59983;52.010;5.420;2023-04-28T13:12:10;101034.22;;;13.68;100.00
72110;BME280;59983;52.010;5.420;2023-04-28T13:14:40;101038.25;;;13.74;100.00
72110;BME280;59983;52.010;5.420;2023-04-28T13:17:07;101037.88;;;13.76;100.00
72110;BME280;59983;52.010;5.420;2023-04-28T13:19:35;101030.56;;;13.80;100.00
72110;BME280;59983;52.010;5.420;2023-04-28T13:22:01;101022.03;;;13.81;100.00